sensor_id;sensor_type;location;lat;lon;timestamp;pressure;altitude;pressure_sealevel;temperature;humidity
10658;BME280;5377;43.276;26.930;2023-05-09T00:02:15;99664.00;;;11.30;100.00
10658;BME280;5377;43.276;26.930;2023-05-09T00:04:43;99667.31;;;11.32;100.00
10658;BME280;5377;43.276;26.930;2023-05-09T00:07:10;99657.88;;;11.36;100.00
10658;BME280;5377;43.276;26.930;2023-05-09T00:09:37;99662.94;;;11.24;100.00
10658;BME280;5377;43.276;26.930;2023-05-09T00:12:04;99666.50;;;11.31;100.00
10658;BME280;5377;43.276;26.930;2023-05-09T00:14:32;99658.25;;;11.33;100.00
10658;BME280;5377;43.276;26.930;2023-05-09T00:16:59;99662.31;;;11.22;100.00
10658;BME280;5377;43.276;26.930;2023-05-09T00:19:25;99665.88;;;11.29;100.00
10658;BME280;5377;43.276;26.930;2023-05-09T00:21:54;99667.97;;;11.34;100.00
10658;BME280;5377;43.276;26.930;2023-05-09T00:24:21;99663.88;;;11.38;100.00
10658;BME280;5377;43.276;26.930;2023-05-09T00:26:47;99662.56;;;11.27;100.00
10658;BME280;5377;43.276;26.930;2023-05-09T00:29:14;99668.59;;;11.36;100.00
10658;BME280;5377;43.276;26.930;2023-05-09T00:31:41;99674.97;;;11.35;100.00
10658;BME280;5377;43.276;26.930;2023-05-09T00:34:08;99671.91;;;11.38;100.00
10658;BME280;5377;43.276;26.930;2023-05-09T00:36:35;99677.91;;;11.40;100.00
10658;BME280;5377;43.276;26.930;2023-05-09T00:39:03;99677.91;;;11.40;100.00
10658;BME280;5377;43.276;26.930;2023-05-09T00:41:30;99683.16;;;11.48;100.00
10658;BME280;5377;43.276;26.930;2023-05-09T00:43:57;99689.47;;;11.40;100.00
10658;BME280;5377;43.276;26.930;2023-05-09T00:46:24;99683.34;;;11.46;100.00
10658;BME280;5377;43.276;26.930;2023-05-09T00:48:51;99685.28;;;11.31;100.00
10658;BME280;5377;43.276;26.930;2023-05-09T00:51:17;99684.44;;;11.31;100.00
10658;BME280;5377;43.276;26.930;2023-05-09T00:53:44;99690.06;;;11.36;100.00
10658;BME280;5377;43.276;26.930;2023-05-09T00:56:13;99688.19;;;11.36;100.00
10658;BME280;5377;43.276;26.930;2023-05-09T00:58:40;99688.09;;;11.23;100.00
10658;BME280;5377;43.276;26.930;2023-05-09T01:01:08;99688.44;;;11.13;100.00
10658;BME280;5377;43.276;26.930;2023-05-09T01:03:35;99692.50;;;11.09;100.00
10658;BME280;5377;43.276;26.930;2023-05-09T01:06:06;99696.59;;;11.05;100.00
10658;BME280;5377;43.276;26.930;2023-05-09T01:08:44;99698.88;;;11.08;100.00
10658;BME280;5377;43.276;26.930;2023-05-09T01:11:19;99684.00;;;11.06;100.00
10658;BME280;5377;43.276;26.930;2023-05-09T01:13:53;99687.16;;;10.88;100.00
10658;BME280;5377;43.276;26.930;2023-05-09T01:16:25;99688.88;;;10.96;100.00
10658;BME280;5377;43.276;26.930;2023-05-09T01:19:02;99686.25;;;10.81;100.00
10658;BME280;5377;43.276;26.930;2023-05-09T01:21:33;99695.88;;;10.97;100.00
10658;BME280;5377;43.276;26.930;2023-05-09T01:24:23;99697.47;;;10.91;100.00
10658;BME280;5377;43.276;26.930;2023-05-09T01:27:05;99695.38;;;10.86;100.00
10658;BME280;5377;43.276;26.930;2023-05-09T01:29:41;99684.34;;;10.96;100.00
10658;BME280;5377;43.276;26.930;2023-05-09T01:32:13;99695.69;;;10.98;100.00
10658;BME280;5377;43.276;26.930;2023-05-09T01:34:43;99697.03;;;11.09;100.00
10658;BME280;5377;43.276;26.930;2023-05-09T01:37:12;99708.22;;;11.12;100.00
10658;BME280;5377;43.276;26.930;2023-05-09T01:39:44;99703.41;;;11.08;100.00
10658;BME280;5377;43.276;26.930;2023-05-09T01:42:14;99704.13;;;11.16;100.00
10658;BME280;5377;43.276;26.930;2023-05-09T01:44:45;99695.25;;;11.16;100.00
10658;BME280;5377;43.276;26.930;2023-05-09T01:47:13;99701.50;;;11.23;100.00
10658;BME280;5377;43.276;26.930;2023-05-09T01:49:42;99697.16;;;11.22;100.00
10658;BME280;5377;43.276;26.930;2023-05-09T01:52:12;99656.38;;;11.05;100.00
10658;BME280;5377;43.276;26.930;2023-05-09T01:54:40;99697.47;;;11.34;100.00
10658;BME280;5377;43.276;26.930;2023-05-09T01:57:09;99694.88;;;11.19;100.00
10658;BME280;5377;43.276;26.930;2023-05-09T01:59:38;99692.09;;;11.34;100.00
10658;BME280;5377;43.276;26.930;2023-05-09T02:02:08;99694.28;;;11.23;100.00
10658;BME280;5377;43.276;26.930;2023-05-09T02:04:35;99690.53;;;11.18;100.00
10658;BME280;5377;43.276;26.930;2023-05-09T02:07:03;99696.97;;;11.02;100.00
10658;BME280;5377;43.276;26.930;2023-05-09T02:09:30;99640.88;;;10.58;100.00
10658;BME280;5377;43.276;26.930;2023-05-09T02:11:57;99695.88;;;10.97;100.00
10658;BME280;5377;43.276;26.930;2023-05-09T02:14:24;99703.47;;;10.93;100.00
10658;BME280;5377;43.276;26.930;2023-05-09T02:16:51;99702.66;;;10.92;100.00
10658;BME280;5377;43.276;26.930;2023-05-09T02:19:19;99704.19;;;10.80;100.00
10658;BME280;5377;43.276;26.930;2023-05-09T02:21:46;99700.03;;;10.78;100.00
10658;BME280;5377;43.276;26.930;2023-05-09T02:24:13;99690.06;;;10.72;100.00
10658;BME280;5377;43.276;26.930;2023-05-09T02:26:40;99693.84;;;10.77;100.00
10658;BME280;5377;43.276;26.930;2023-05-09T02:29:09;99693.47;;;10.80;100.00
10658;BME280;5377;43.276;26.930;2023-05-09T02:31:39;99683.25;;;10.90;100.00
10658;BME280;5377;43.276;26.930;2023-05-09T02:34:08;99694.03;;;10.97;100.00
10658;BME280;5377;43.276;26.930;2023-05-09T02:36:37;99696.53;;;10.99;100.00
10658;BME280;5377;43.276;26.930;2023-05-09T02:39:05;99696.97;;;11.02;100.00
10658;BME280;5377;43.276;26.930;2023-05-09T02:41:32;99689.13;;;11.01;100.00
10658;BME280;5377;43.276;26.930;2023-05-09T02:43:59;99695.94;;;11.03;100.00
10658;BME280;5377;43.276;26.930;2023-05-09T02:46:26;99694.69;;;10.99;100.00
10658;BME280;5377;43.276;26.930;2023-05-09T02:48:52;99696.09;;;10.95;100.00
10658;BME280;5377;43.276;26.930;2023-05-09T02:51:19;99689.25;;;10.92;100.00
10658;BME280;5377;43.276;26.930;2023-05-09T02:53:47;99697.75;;;10.96;100.00
10658;BME280;5377;43.276;26.930;2023-05-09T02:56:14;99698.38;;;10.77;100.00
10658;BME280;5377;43.276;26.930;2023-05-09T02:58:41;99704.69;;;10.90;100.00
10658;BME280;5377;43.276;26.930;2023-05-09T03:01:15;99700.59;;;10.73;100.00
10658;BME280;5377;43.276;26.930;2023-05-09T03:03:42;99700.88;;;10.78;100.00
10658;BME280;5377;43.276;26.930;2023-05-09T03:06:08;99706.75;;;10.88;100.00
10658;BME280;5377;43.276;26.930;2023-05-09T03:08:35;99706.75;;;10.88;100.00
10658;BME280;5377;43.276;26.930;2023-05-09T03:11:03;99696.59;;;10.84;100.00
10658;BME280;5377;43.276;26.930;2023-05-09T03:13:30;99714.78;;;10.88;100.00
10658;BME280;5377;43.276;26.930;2023-05-09T03:15:57;99706.69;;;10.82;100.00
10658;BME280;5377;43.276;26.930;2023-05-09T03:18:24;99717.00;;;10.85;100.00
10658;BME280;5377;43.276;26.930;2023-05-09T03:20:51;99714.91;;;10.80;100.00
10658;BME280;5377;43.276;26.930;2023-05-09T03:23:18;99704.81;;;10.82;100.00
10658;BME280;5377;43.276;26.930;2023-05-09T03:25:44;99717.66;;;10.87;100.00
10658;BME280;5377;43.276;26.930;2023-05-09T03:28:12;99710.94;;;10.76;100.00
10658;BME280;5377;43.276;26.930;2023-05-09T03:30:39;99721.66;;;10.76;100.00
10658;BME280;5377;43.276;26.930;2023-05-09T03:33:06;99729.22;;;10.73;100.00
10658;BME280;5377;43.276;26.930;2023-05-09T03:35:33;99737.63;;;10.84;100.00
10658;BME280;5377;43.276;26.930;2023-05-09T03:38:00;99748.06;;;10.79;100.00
10658;BME280;5377;43.276;26.930;2023-05-09T03:40:26;99736.97;;;10.82;100.00
10658;BME280;5377;43.276;26.930;2023-05-09T03:42:53;99735.34;;;10.67;100.00
10658;BME280;5377;43.276;26.930;2023-05-09T03:45:21;99748.09;;;10.65;100.00
10658;BME280;5377;43.276;26.930;2023-05-09T03:47:48;99751.06;;;10.55;100.00
10658;BME280;5377;43.276;26.930;2023-05-09T03:50:15;99748.47;;;10.61;100.00
10658;BME280;5377;43.276;26.930;2023-05-09T03:52:42;99745.22;;;10.66;100.00
10658;BME280;5377;43.276;26.930;2023-05-09T03:55:09;99752.63;;;10.64;100.00
10658;BME280;5377;43.276;26.930;2023-05-09T03:57:36;99752.69;;;10.71;100.00
10658;BME280;5377;43.276;26.930;2023-05-09T04:00:04;99747.00;;;10.59;100.00
10658;BME280;5377;43.276;26.930;2023-05-09T04:02:33;99760.41;;;10.59;100.00
10658;BME280;5377;43.276;26.930;2023-05-09T04:05:00;99759.44;;;10.67;100.00
10658;BME280;5377;43.276;26.930;2023-05-09T04:07:27;99754.16;;;10.73;100.00
10658;BME280;5377;43.276;26.930;2023-05-09T04:09:55;99763.16;;;10.66;100.00
10658;BME280;5377;43.276;26.930;2023-05-09T04:12:22;99761.38;;;10.73;100.00
10658;BME280;5377;43.276;26.930;2023-05-09T04:14:48;99772.47;;;10.70;100.00
10658;BME280;5377;43.276;26.930;2023-05-09T04:17:16;99764.34;;;10.78;100.00
10658;BME280;5377;43.276;26.930;2023-05-09T04:19:44;99770.16;;;10.81;100.00
10658;BME280;5377;43.276;26.930;2023-05-09T04:22:11;99765.88;;;10.87;100.00
10658;BME280;5377;43.276;26.930;2023-05-09T04:24:38;99772.47;;;10.84;100.00
10658;BME280;5377;43.276;26.930;2023-05-09T04:27:05;99768.19;;;10.90;100.00
10658;BME280;5377;43.276;26.930;2023-05-09T04:29:32;99759.97;;;10.91;100.00
10658;BME280;5377;43.276;26.930;2023-05-09T04:31:59;99772.72;;;10.89;100.00
10658;BME280;5377;43.276;26.930;2023-05-09T04:34:26;99779.81;;;10.97;100.00
10658;BME280;5377;43.276;26.930;2023-05-09T04:36:55;99771.50;;;10.92;100.00
10658;BME280;5377;43.276;26.930;2023-05-09T04:39:22;99778.72;;;10.91;100.00
10658;BME280;5377;43.276;26.930;2023-05-09T04:41:48;99776.47;;;10.95;100.00
10658;BME280;5377;43.276;26.930;2023-05-09T04:44:16;99779.81;;;10.97;100.00
10658;BME280;5377;43.276;26.930;2023-05-09T04:46:43;99785.44;;;11.02;100.00
10658;BME280;5377;43.276;26.930;2023-05-09T04:49:10;99781.97;;;11.08;100.00
10658;BME280;5377;43.276;26.930;2023-05-09T04:51:37;99790.03;;;11.08;100.00
10658;BME280;5377;43.276;26.930;2023-05-09T04:54:05;99788.09;;;11.02;100.00
10658;BME280;5377;43.276;26.930;2023-05-09T04:56:32;99781.63;;;11.11;100.00
10658;BME280;5377;43.276;26.930;2023-05-09T04:58:59;99778.03;;;11.04;100.00
10658;BME280;5377;43.276;26.930;2023-05-09T05:01:25;99783.75;;;11.01;100.00
10658;BME280;5377;43.276;26.930;2023-05-09T05:03:52;99778.66;;;11.06;100.00
10658;BME280;5377;43.276;26.930;2023-05-09T05:06:19;99780.69;;;11.04;100.00
10658;BME280;5377;43.276;26.930;2023-05-09T05:08:46;99785.03;;;11.05;100.00
10658;BME280;5377;43.276;26.930;2023-05-09T05:11:14;99784.78;;;11.00;100.00
10658;BME280;5377;43.276;26.930;2023-05-09T05:13:42;99783.94;;;11.14;100.00
10658;BME280;5377;43.276;26.930;2023-05-09T05:16:09;99777.81;;;11.20;100.00
10658;BME280;5377;43.276;26.930;2023-05-09T05:18:35;99785.47;;;11.23;100.00
10658;BME280;5377;43.276;26.930;2023-05-09T05:21:02;99782.41;;;11.27;100.00
10658;BME280;5377;43.276;26.930;2023-05-09T05:23:29;99783.66;;;11.31;100.00
10658;BME280;5377;43.276;26.930;2023-05-09T05:25:56;99771.59;;;11.20;100.00
10658;BME280;5377;43.276;26.930;2023-05-09T05:28:24;99782.78;;;11.23;100.00
10658;BME280;5377;43.276;26.930;2023-05-09T05:30:51;99779.44;;;11.43;100.00
10658;BME280;5377;43.276;26.930;2023-05-09T05:33:17;99768.72;;;11.43;100.00
10658;BME280;5377;43.276;26.930;2023-05-09T05:35:44;99783.53;;;11.60;100.00
10658;BME280;5377;43.276;26.930;2023-05-09T05:38:11;99781.69;;;11.61;100.00
10658;BME280;5377;43.276;26.930;2023-05-09T05:40:38;99780.91;;;11.67;100.00
10658;BME280;5377;43.276;26.930;2023-05-09T05:43:05;99784.94;;;11.56;100.00
10658;BME280;5377;43.276;26.930;2023-05-09T05:45:33;99784.06;;;11.49;100.00
10658;BME280;5377;43.276;26.930;2023-05-09T05:48:00;99779.97;;;11.53;100.00
10658;BME280;5377;43.276;26.930;2023-05-09T05:50:27;99785.19;;;11.40;100.00
10658;BME280;5377;43.276;26.930;2023-05-09T05:52:53;99785.28;;;11.46;100.00
10658;BME280;5377;43.276;26.930;2023-05-09T05:55:20;99784.31;;;11.33;100.00
10658;BME280;5377;43.276;26.930;2023-05-09T05:57:47;99788.47;;;11.35;100.00
10658;BME280;5377;43.276;26.930;2023-05-09T06:00:15;99788.16;;;11.45;100.00
10658;BME280;5377;43.276;26.930;2023-05-09T06:02:43;99796.38;;;11.43;100.00
10658;BME280;5377;43.276;26.930;2023-05-09T06:05:12;99791.09;;;11.50;100.00
10658;BME280;5377;43.276;26.930;2023-05-09T06:07:39;99790.69;;;11.53;100.00
10658;BME280;5377;43.276;26.930;2023-05-09T06:10:09;99793.63;;;11.58;100.00
10658;BME280;5377;43.276;26.930;2023-05-09T06:12:36;99796.13;;;11.60;100.00
10658;BME280;5377;43.276;26.930;2023-05-09T06:15:03;99795.53;;;11.64;100.00
10658;BME280;5377;43.276;26.930;2023-05-09T06:17:30;99802.38;;;11.67;100.00
10658;BME280;5377;43.276;26.930;2023-05-09T06:19:58;99808.06;;;11.57;100.00
10658;BME280;5377;43.276;26.930;2023-05-09T06:22:25;99804.75;;;11.55;100.00
10658;BME280;5377;43.276;26.930;2023-05-09T06:24:52;99805.06;;;11.67;100.00
10658;BME280;5377;43.276;26.930;2023-05-09T06:27:19;99805.09;;;11.73;100.00
10658;BME280;5377;43.276;26.930;2023-05-09T06:29:46;99799.19;;;11.78;100.00
10658;BME280;5377;43.276;26.930;2023-05-09T06:32:12;99805.56;;;11.98;100.00
10658;BME280;5377;43.276;26.930;2023-05-09T06:34:39;99805.16;;;12.01;100.00
10658;BME280;5377;43.276;26.930;2023-05-09T06:37:07;99806.94;;;11.88;100.00
10658;BME280;5377;43.276;26.930;2023-05-09T06:39:34;99799.78;;;12.01;100.00
10658;BME280;5377;43.276;26.930;2023-05-09T06:42:01;99805.84;;;12.10;100.00
10658;BME280;5377;43.276;26.930;2023-05-09T06:44:28;99805.63;;;12.11;100.00
10658;BME280;5377;43.276;26.930;2023-05-09T06:46:55;99797.34;;;12.06;100.00
10658;BME280;5377;43.276;26.930;2023-05-09T06:49:21;99792.38;;;12.03;100.00
10658;BME280;5377;43.276;26.930;2023-05-09T06:51:48;99788.19;;;11.94;100.00
10658;BME280;5377;43.276;26.930;2023-05-09T06:54:16;99785.25;;;11.89;100.00
10658;BME280;5377;43.276;26.930;2023-05-09T06:56:43;99789.69;;;12.03;100.00
10658;BME280;5377;43.276;26.930;2023-05-09T06:59:10;99786.28;;;12.16;100.00
10658;BME280;5377;43.276;26.930;2023-05-09T07:01:38;99784.13;;;12.05;100.00
10658;BME280;5377;43.276;26.930;2023-05-09T07:04:05;99790.66;;;11.96;100.00
10658;BME280;5377;43.276;26.930;2023-05-09T07:06:31;99798.72;;;11.96;100.00
10658;BME280;5377;43.276;26.930;2023-05-09T07:08:58;99790.84;;;11.73;100.00
10658;BME280;5377;43.276;26.930;2023-05-09T07:11:26;99794.28;;;11.81;100.00
10658;BME280;5377;43.276;26.930;2023-05-09T07:13:53;99797.22;;;11.86;100.00
10658;BME280;5377;43.276;26.930;2023-05-09T07:16:20;99797.41;;;11.85;100.00
10658;BME280;5377;43.276;26.930;2023-05-09T07:18:47;99797.59;;;11.83;100.00
10658;BME280;5377;43.276;26.930;2023-05-09T07:21:14;99803.44;;;11.72;100.00
10658;BME280;5377;43.276;26.930;2023-05-09T07:23:40;99800.34;;;11.47;100.00
10658;BME280;5377;43.276;26.930;2023-05-09T07:26:07;99800.59;;;11.52;100.00
10658;BME280;5377;43.276;26.930;2023-05-09T07:28:35;99807.19;;;11.50;100.00
10658;BME280;5377;43.276;26.930;2023-05-09T07:31:03;99804.56;;;11.78;100.00
10658;BME280;5377;43.276;26.930;2023-05-09T07:33:30;99805.06;;;11.88;100.00
10658;BME280;5377;43.276;26.930;2023-05-09T07:35:58;99805.44;;;12.13;100.00
10658;BME280;5377;43.276;26.930;2023-05-09T07:38:24;99804.09;;;12.24;100.00
10658;BME280;5377;43.276;26.930;2023-05-09T07:40:51;99810.53;;;12.29;100.00
10658;BME280;5377;43.276;26.930;2023-05-09T07:43:18;99804.88;;;12.17;100.00
10658;BME280;5377;43.276;26.930;2023-05-09T07:45:46;99808.72;;;12.08;100.00
10658;BME280;5377;43.276;26.930;2023-05-09T07:48:13;99808.78;;;12.15;100.00
10658;BME280;5377;43.276;26.930;2023-05-09T07:50:40;99804.13;;;12.30;100.00
10658;BME280;5377;43.276;26.930;2023-05-09T07:53:07;99802.88;;;12.26;100.00
10658;BME280;5377;43.276;26.930;2023-05-09T07:55:34;99795.66;;;12.33;100.00
10658;BME280;5377;43.276;26.930;2023-05-09T07:58:01;99794.53;;;12.49;100.00
10658;BME280;5377;43.276;26.930;2023-05-09T08:00:27;99797.03;;;12.51;100.00
10658;BME280;5377;43.276;26.930;2023-05-09T08:02:56;99788.00;;;12.71;100.00
10658;BME280;5377;43.276;26.930;2023-05-09T08:05:22;99756.13;;;12.55;100.00
10658;BME280;5377;43.276;26.930;2023-05-09T08:07:49;99783.25;;;12.73;100.00
10658;BME280;5377;43.276;26.930;2023-05-09T08:10:16;99786.59;;;12.82;100.00
10658;BME280;5377;43.276;26.930;2023-05-09T08:12:43;99781.31;;;13.02;100.00
10658;BME280;5377;43.276;26.930;2023-05-09T08:15:10;99776.56;;;13.10;100.00
10658;BME280;5377;43.276;26.930;2023-05-09T08:17:37;99774.97;;;13.23;100.00
10658;BME280;5377;43.276;26.930;2023-05-09T08:20:06;99781.19;;;13.30;100.00
10658;BME280;5377;43.276;26.930;2023-05-09T08:22:33;99770.03;;;13.33;100.00
10658;BME280;5377;43.276;26.930;2023-05-09T08:25:00;99764.84;;;13.51;100.00
10658;BME280;5377;43.276;26.930;2023-05-09T08:27:26;99767.56;;;13.78;100.00
10658;BME280;5377;43.276;26.930;2023-05-09T08:29:53;99762.53;;;14.27;100.00
10658;BME280;5377;43.276;26.930;2023-05-09T08:32:20;99760.38;;;14.56;100.00
10658;BME280;5377;43.276;26.930;2023-05-09T08:34:47;99760.53;;;14.74;100.00
10658;BME280;5377;43.276;26.930;2023-05-09T08:37:15;99733.56;;;14.74;100.00
10658;BME280;5377;43.276;26.930;2023-05-09T08:39:42;99746.16;;;14.87;100.00
10658;BME280;5377;43.276;26.930;2023-05-09T08:42:09;99736.22;;;15.19;100.00
10658;BME280;5377;43.276;26.930;2023-05-09T08:44:35;99734.03;;;15.03;100.00
10658;BME280;5377;43.276;26.930;2023-05-09T08:47:03;99728.13;;;15.19;100.00
10658;BME280;5377;43.276;26.930;2023-05-09T08:49:30;99727.91;;;15.20;100.00
10658;BME280;5377;43.276;26.930;2023-05-09T08:51:57;99728.19;;;14.74;100.00
10658;BME280;5377;43.276;26.930;2023-05-09T08:54:27;99731.41;;;14.89;100.00
10658;BME280;5377;43.276;26.930;2023-05-09T08:56:54;99724.00;;;14.78;100.00
10658;BME280;5377;43.276;26.930;2023-05-09T08:59:22;99724.78;;;14.85;100.00
10658;BME280;5377;43.276;26.930;2023-05-09T09:01:50;99717.91;;;14.58;100.00
10658;BME280;5377;43.276;26.930;2023-05-09T09:04:17;99717.91;;;14.58;100.00
10658;BME280;5377;43.276;26.930;2023-05-09T09:06:45;99720.94;;;15.06;100.00
10658;BME280;5377;43.276;26.930;2023-05-09T09:09:12;99719.16;;;15.50;100.00
10658;BME280;5377;43.276;26.930;2023-05-09T09:11:42;99709.75;;;15.66;100.00
10658;BME280;5377;43.276;26.930;2023-05-09T09:14:11;99716.41;;;15.63;100.00
10658;BME280;5377;43.276;26.930;2023-05-09T09:16:40;99710.25;;;14.86;100.00
10658;BME280;5377;43.276;26.930;2023-05-09T09:19:11;99707.13;;;14.89;100.00
10658;BME280;5377;43.276;26.930;2023-05-09T09:21:39;99714.16;;;15.28;100.00
10658;BME280;5377;43.276;26.930;2023-05-09T09:24:07;99712.25;;;15.60;100.00
10658;BME280;5377;43.276;26.930;2023-05-09T09:26:34;99717.22;;;16.07;100.00
10658;BME280;5377;43.276;26.930;2023-05-09T09:29:12;99708.66;;;16.28;98.19
10658;BME280;5377;43.276;26.930;2023-05-09T09:31:43;99705.13;;;16.46;98.10
10658;BME280;5377;43.276;26.930;2023-05-09T09:34:11;99708.88;;;16.63;96.45
10658;BME280;5377;43.276;26.930;2023-05-09T09:36:38;99709.53;;;16.59;91.36
10658;BME280;5377;43.276;26.930;2023-05-09T09:39:05;99697.94;;;16.88;88.92
10658;BME280;5377;43.276;26.930;2023-05-09T09:41:34;99693.38;;;16.89;88.38
10658;BME280;5377;43.276;26.930;2023-05-09T09:44:05;99691.72;;;16.88;88.25
10658;BME280;5377;43.276;26.930;2023-05-09T09:46:42;99692.31;;;16.90;87.19
10658;BME280;5377;43.276;26.930;2023-05-09T09:49:09;99686.63;;;17.21;88.54
10658;BME280;5377;43.276;26.930;2023-05-09T09:51:36;99694.75;;;17.09;87.96
10658;BME280;5377;43.276;26.930;2023-05-09T09:54:05;99693.28;;;16.95;84.58
10658;BME280;5377;43.276;26.930;2023-05-09T09:56:40;99690.16;;;16.62;82.98
10658;BME280;5377;43.276;26.930;2023-05-09T09:59:08;99693.81;;;16.19;83.10
10658;BME280;5377;43.276;26.930;2023-05-09T10:01:54;99699.59;;;16.41;85.08
10658;BME280;5377;43.276;26.930;2023-05-09T10:04:20;99704.16;;;16.22;87.59
10658;BME280;5377;43.276;26.930;2023-05-09T10:06:52;99710.47;;;15.98;91.19
10658;BME280;5377;43.276;26.930;2023-05-09T10:09:20;99707.53;;;15.99;92.10
10658;BME280;5377;43.276;26.930;2023-05-09T10:11:48;99708.38;;;16.00;94.01
10658;BME280;5377;43.276;26.930;2023-05-09T10:14:15;99707.94;;;15.78;93.64
10658;BME280;5377;43.276;26.930;2023-05-09T10:16:46;99704.28;;;15.72;92.13
10658;BME280;5377;43.276;26.930;2023-05-09T10:19:16;99715.19;;;15.52;93.42
10658;BME280;5377;43.276;26.930;2023-05-09T10:21:46;99703.97;;;15.31;95.59
10658;BME280;5377;43.276;26.930;2023-05-09T10:24:17;99710.75;;;15.40;97.70
10658;BME280;5377;43.276;26.930;2023-05-09T10:26:48;99703.00;;;15.18;98.48
10658;BME280;5377;43.276;26.930;2023-05-09T10:29:22;99712.19;;;15.11;100.00
10658;BME280;5377;43.276;26.930;2023-05-09T10:31:53;99714.34;;;14.64;100.00
10658;BME280;5377;43.276;26.930;2023-05-09T10:34:27;99711.84;;;14.62;100.00
10658;BME280;5377;43.276;26.930;2023-05-09T10:36:57;99708.97;;;14.57;100.00
10658;BME280;5377;43.276;26.930;2023-05-09T10:39:26;99704.72;;;14.75;100.00
10658;BME280;5377;43.276;26.930;2023-05-09T10:41:53;99701.69;;;14.64;100.00
10658;BME280;5377;43.276;26.930;2023-05-09T10:44:22;99700.63;;;14.65;100.00
10658;BME280;5377;43.276;26.930;2023-05-09T10:46:49;99704.09;;;14.79;100.00
10658;BME280;5377;43.276;26.930;2023-05-09T10:49:17;99698.25;;;14.82;100.00
10658;BME280;5377;43.276;26.930;2023-05-09T10:51:45;99696.00;;;14.79;100.00
10658;BME280;5377;43.276;26.930;2023-05-09T10:54:13;99700.59;;;14.72;97.74
10658;BME280;5377;43.276;26.930;2023-05-09T10:56:41;99701.06;;;14.56;96.78
10658;BME280;5377;43.276;26.930;2023-05-09T10:59:32;99703.50;;;14.71;97.32
10658;BME280;5377;43.276;26.930;2023-05-09T11:02:00;99704.34;;;14.71;97.42
10658;BME280;5377;43.276;26.930;2023-05-09T11:04:28;99703.03;;;14.80;99.38
10658;BME280;5377;43.276;26.930;2023-05-09T11:06:57;99708.81;;;14.84;99.02
10658;BME280;5377;43.276;26.930;2023-05-09T11:09:26;99710.25;;;14.86;99.30
10658;BME280;5377;43.276;26.930;2023-05-09T11:11:55;99713.56;;;14.88;99.57
10658;BME280;5377;43.276;26.930;2023-05-09T11:14:32;99711.94;;;14.81;99.23
10658;BME280;5377;43.276;26.930;2023-05-09T11:17:00;99707.28;;;14.63;98.17
10658;BME280;5377;43.276;26.930;2023-05-09T11:19:36;99706.16;;;14.77;97.94
10658;BME280;5377;43.276;26.930;2023-05-09T11:22:15;99697.97;;;14.59;92.86
10658;BME280;5377;43.276;26.930;2023-05-09T11:24:46;99697.16;;;14.58;92.04
10658;BME280;5377;43.276;26.930;2023-05-09T11:27:14;99703.28;;;14.72;92.77
10658;BME280;5377;43.276;26.930;2023-05-09T11:29:47;99695.03;;;14.67;91.80
10658;BME280;5377;43.276;26.930;2023-05-09T11:32:15;99700.06;;;14.50;94.70
10658;BME280;5377;43.276;26.930;2023-05-09T11:34:43;99689.91;;;14.59;99.93
10658;BME280;5377;43.276;26.930;2023-05-09T11:37:11;99700.38;;;14.74;100.00
10658;BME280;5377;43.276;26.930;2023-05-09T11:39:56;99700.91;;;14.89;100.00
10658;BME280;5377;43.276;26.930;2023-05-09T11:42:23;99682.03;;;14.89;100.00
10658;BME280;5377;43.276;26.930;2023-05-09T11:44:50;99685.97;;;14.93;97.52
10658;BME280;5377;43.276;26.930;2023-05-09T11:47:18;99693.31;;;15.11;93.39
10658;BME280;5377;43.276;26.930;2023-05-09T11:49:44;99684.72;;;15.20;88.33
10658;BME280;5377;43.276;26.930;2023-05-09T11:52:11;99680.63;;;15.11;85.90
10658;BME280;5377;43.276;26.930;2023-05-09T11:54:38;99680.34;;;14.94;85.94
10658;BME280;5377;43.276;26.930;2023-05-09T11:57:06;99682.97;;;15.08;87.56
10658;BME280;5377;43.276;26.930;2023-05-09T11:59:34;99679.94;;;14.91;86.46
10658;BME280;5377;43.276;26.930;2023-05-09T12:02:03;99680.16;;;14.58;88.89
10658;BME280;5377;43.276;26.930;2023-05-09T12:04:31;99680.59;;;14.48;91.55
10658;BME280;5377;43.276;26.930;2023-05-09T12:06:58;99674.75;;;14.58;93.00
10658;BME280;5377;43.276;26.930;2023-05-09T12:09:29;99686.16;;;14.53;94.22
10658;BME280;5377;43.276;26.930;2023-05-09T12:11:56;99677.28;;;14.40;96.92
10658;BME280;5377;43.276;26.930;2023-05-09T12:14:28;99680.88;;;14.27;100.00
10658;BME280;5377;43.276;26.930;2023-05-09T12:16:56;99693.16;;;14.03;100.00
10658;BME280;5377;43.276;26.930;2023-05-09T12:19:23;99691.56;;;13.89;100.00
10658;BME280;5377;43.276;26.930;2023-05-09T12:21:53;99687.81;;;13.77;100.00
10658;BME280;5377;43.276;26.930;2023-05-09T12:24:22;99696.72;;;13.77;100.00
10658;BME280;5377;43.276;26.930;2023-05-09T12:26:51;99695.69;;;13.85;100.00
10658;BME280;5377;43.276;26.930;2023-05-09T12:29:18;99699.41;;;13.97;100.00
10658;BME280;5377;43.276;26.930;2023-05-09T12:31:47;99683.25;;;13.84;100.00
10658;BME280;5377;43.276;26.930;2023-05-09T12:34:14;99692.59;;;13.74;100.00
10658;BME280;5377;43.276;26.930;2023-05-09T12:36:42;99688.22;;;13.87;100.00
10658;BME280;5377;43.276;26.930;2023-05-09T12:39:15;99684.91;;;13.85;100.00
10658;BME280;5377;43.276;26.930;2023-05-09T12:41:43;99680.59;;;13.70;100.00
10658;BME280;5377;43.276;26.930;2023-05-09T12:44:17;99687.81;;;13.83;100.00
10658;BME280;5377;43.276;26.930;2023-05-09T12:46:57;99683.03;;;13.92;100.00
10658;BME280;5377;43.276;26.930;2023-05-09T12:49:24;99676.25;;;13.69;100.00
10658;BME280;5377;43.276;26.930;2023-05-09T12:51:52;99679.53;;;13.78;100.00
10658;BME280;5377;43.276;26.930;2023-05-09T12:54:20;99685.34;;;13.75;100.00
10658;BME280;5377;43.276;26.930;2023-05-09T12:56:47;99677.44;;;13.87;100.00
10658;BME280;5377;43.276;26.930;2023-05-09T12:59:19;99678.47;;;13.86;100.00